EDDC

Dresden Airport

Dresden, Germany
METAR EDDC 140020Z 10006KT 060V130 9999 SCT007 OVC039 00/M01 Q1021
Observed Flight Rules
Dec-14 @ 00:20 UTC (24 minutes ago) Visual Flight Rules
Wind Visibility Clouds
100° at 6 knots 10,000+ meters
  • Scattered at 700' AGL
  • Overcast at 3,900' AGL
Temperatures Readings
Current 0°C / 32°F
Dewpoint -1°C / 30°F
Humidity 93%
Altimeter 30.15" Hg
Pressure 1021 hPa
Elevation 226
METAR EDDC 140020Z 10006KT 060V130 9999 SCT007 OVC039 00/M01 Q1021
Observed Flight Rules
Dec-14 @ 00:20 UTC
(24 minutes ago)
VFR
Wind Visibility
100° at 6 knots 10,000+ meters
Clouds
  • Scattered at 700' AGL
  • Overcast at 3,900' AGL
Temperature Dewpoint
0°C / 32°F -1°C / 30°F
Humidity Altimeter Pressure
93% 30.15" Hg 1021 hPa